sensor_id;sensor_type;location;lat;lon;timestamp;P1;durP1;ratioP1;P2;durP2;ratioP2
15385;SDS011;7791;47.246;9.648;2022-07-22T00:00:50;23.37;;;18.10;;
15385;SDS011;7791;47.246;9.648;2022-07-22T00:03:16;23.63;;;17.37;;
15385;SDS011;7791;47.246;9.648;2022-07-22T00:05:42;21.30;;;16.87;;
15385;SDS011;7791;47.246;9.648;2022-07-22T00:08:07;25.80;;;17.13;;
15385;SDS011;7791;47.246;9.648;2022-07-22T00:10:44;24.83;;;18.20;;
15385;SDS011;7791;47.246;9.648;2022-07-22T00:13:09;24.77;;;18.77;;
15385;SDS011;7791;47.246;9.648;2022-07-22T00:15:35;22.97;;;19.50;;
15385;SDS011;7791;47.246;9.648;2022-07-22T00:18:01;23.93;;;19.03;;
15385;SDS011;7791;47.246;9.648;2022-07-22T00:20:27;22.67;;;17.20;;
15385;SDS011;7791;47.246;9.648;2022-07-22T00:22:53;25.30;;;18.30;;
15385;SDS011;7791;47.246;9.648;2022-07-22T00:25:18;25.90;;;18.17;;
15385;SDS011;7791;47.246;9.648;2022-07-22T00:27:46;21.17;;;17.87;;
15385;SDS011;7791;47.246;9.648;2022-07-22T00:30:12;22.33;;;18.77;;
15385;SDS011;7791;47.246;9.648;2022-07-22T00:32:38;25.90;;;18.53;;
15385;SDS011;7791;47.246;9.648;2022-07-22T00:35:04;21.93;;;18.30;;
15385;SDS011;7791;47.246;9.648;2022-07-22T00:37:31;24.23;;;18.60;;
15385;SDS011;7791;47.246;9.648;2022-07-22T00:39:57;23.60;;;17.80;;
15385;SDS011;7791;47.246;9.648;2022-07-22T00:42:22;22.43;;;17.13;;
15385;SDS011;7791;47.246;9.648;2022-07-22T00:44:50;22.03;;;16.63;;
15385;SDS011;7791;47.246;9.648;2022-07-22T00:47:15;20.77;;;15.87;;
15385;SDS011;7791;47.246;9.648;2022-07-22T00:49:41;20.90;;;16.73;;
15385;SDS011;7791;47.246;9.648;2022-07-22T00:52:07;20.60;;;16.60;;
15385;SDS011;7791;47.246;9.648;2022-07-22T00:54:33;21.57;;;17.07;;
15385;SDS011;7791;47.246;9.648;2022-07-22T00:57:00;20.33;;;16.17;;
15385;SDS011;7791;47.246;9.648;2022-07-22T00:59:26;21.00;;;15.83;;
15385;SDS011;7791;47.246;9.648;2022-07-22T01:01:53;22.47;;;17.13;;
15385;SDS011;7791;47.246;9.648;2022-07-22T01:04:19;21.37;;;16.90;;
15385;SDS011;7791;47.246;9.648;2022-07-22T01:06:45;20.73;;;17.97;;
15385;SDS011;7791;47.246;9.648;2022-07-22T01:09:12;18.47;;;15.83;;
15385;SDS011;7791;47.246;9.648;2022-07-22T01:11:40;21.97;;;16.37;;
15385;SDS011;7791;47.246;9.648;2022-07-22T01:14:06;19.90;;;16.33;;
15385;SDS011;7791;47.246;9.648;2022-07-22T01:16:32;17.93;;;15.53;;
15385;SDS011;7791;47.246;9.648;2022-07-22T01:18:59;20.50;;;15.30;;
15385;SDS011;7791;47.246;9.648;2022-07-22T01:21:26;20.60;;;16.27;;
15385;SDS011;7791;47.246;9.648;2022-07-22T01:23:52;18.00;;;15.07;;
15385;SDS011;7791;47.246;9.648;2022-07-22T01:26:19;20.00;;;14.00;;
15385;SDS011;7791;47.246;9.648;2022-07-22T01:28:45;19.17;;;15.63;;
15385;SDS011;7791;47.246;9.648;2022-07-22T01:31:11;17.97;;;15.57;;
15385;SDS011;7791;47.246;9.648;2022-07-22T01:33:36;18.90;;;15.20;;
15385;SDS011;7791;47.246;9.648;2022-07-22T01:36:02;16.63;;;13.37;;
15385;SDS011;7791;47.246;9.648;2022-07-22T01:38:30;21.33;;;13.43;;
15385;SDS011;7791;47.246;9.648;2022-07-22T01:40:56;18.77;;;15.57;;
15385;SDS011;7791;47.246;9.648;2022-07-22T01:43:22;25.27;;;16.20;;
15385;SDS011;7791;47.246;9.648;2022-07-22T01:45:50;23.67;;;17.60;;
15385;SDS011;7791;47.246;9.648;2022-07-22T01:48:17;19.90;;;16.63;;
15385;SDS011;7791;47.246;9.648;2022-07-22T01:50:44;22.17;;;17.40;;
15385;SDS011;7791;47.246;9.648;2022-07-22T01:53:10;20.23;;;15.93;;
15385;SDS011;7791;47.246;9.648;2022-07-22T01:55:39;21.97;;;15.73;;
15385;SDS011;7791;47.246;9.648;2022-07-22T01:58:05;22.50;;;16.30;;
15385;SDS011;7791;47.246;9.648;2022-07-22T02:00:31;20.23;;;15.87;;
15385;SDS011;7791;47.246;9.648;2022-07-22T02:02:57;20.80;;;15.80;;
15385;SDS011;7791;47.246;9.648;2022-07-22T02:05:23;18.37;;;15.77;;
15385;SDS011;7791;47.246;9.648;2022-07-22T02:07:49;21.20;;;15.87;;
15385;SDS011;7791;47.246;9.648;2022-07-22T02:10:15;21.57;;;16.53;;
15385;SDS011;7791;47.246;9.648;2022-07-22T02:12:42;21.83;;;17.73;;
15385;SDS011;7791;47.246;9.648;2022-07-22T02:15:08;20.53;;;18.17;;
15385;SDS011;7791;47.246;9.648;2022-07-22T02:17:35;22.10;;;16.80;;
15385;SDS011;7791;47.246;9.648;2022-07-22T02:20:01;20.60;;;14.93;;
15385;SDS011;7791;47.246;9.648;2022-07-22T02:22:27;18.90;;;15.17;;
15385;SDS011;7791;47.246;9.648;2022-07-22T02:24:53;22.17;;;16.30;;
15385;SDS011;7791;47.246;9.648;2022-07-22T02:27:19;20.93;;;16.10;;
15385;SDS011;7791;47.246;9.648;2022-07-22T02:29:46;22.50;;;16.67;;
15385;SDS011;7791;47.246;9.648;2022-07-22T02:32:12;22.70;;;16.33;;
15385;SDS011;7791;47.246;9.648;2022-07-22T02:34:38;21.73;;;17.87;;
15385;SDS011;7791;47.246;9.648;2022-07-22T02:37:03;25.50;;;17.17;;
15385;SDS011;7791;47.246;9.648;2022-07-22T02:39:29;23.57;;;17.80;;
15385;SDS011;7791;47.246;9.648;2022-07-22T02:41:55;22.80;;;17.77;;
15385;SDS011;7791;47.246;9.648;2022-07-22T02:44:21;19.93;;;16.20;;
15385;SDS011;7791;47.246;9.648;2022-07-22T02:46:48;19.70;;;15.60;;
15385;SDS011;7791;47.246;9.648;2022-07-22T02:49:13;21.97;;;16.40;;
15385;SDS011;7791;47.246;9.648;2022-07-22T02:51:39;20.93;;;15.50;;
15385;SDS011;7791;47.246;9.648;2022-07-22T02:54:05;15.83;;;13.27;;
15385;SDS011;7791;47.246;9.648;2022-07-22T02:56:31;17.43;;;14.10;;
15385;SDS011;7791;47.246;9.648;2022-07-22T02:58:56;17.70;;;14.57;;
15385;SDS011;7791;47.246;9.648;2022-07-22T03:01:22;19.37;;;15.70;;
15385;SDS011;7791;47.246;9.648;2022-07-22T03:03:49;19.37;;;15.17;;
15385;SDS011;7791;47.246;9.648;2022-07-22T03:06:15;21.27;;;15.63;;
15385;SDS011;7791;47.246;9.648;2022-07-22T03:08:41;19.90;;;15.80;;
15385;SDS011;7791;47.246;9.648;2022-07-22T03:11:12;19.30;;;15.63;;
15385;SDS011;7791;47.246;9.648;2022-07-22T03:13:38;18.10;;;15.30;;
15385;SDS011;7791;47.246;9.648;2022-07-22T03:16:04;18.50;;;14.83;;
15385;SDS011;7791;47.246;9.648;2022-07-22T03:18:30;18.63;;;14.87;;
15385;SDS011;7791;47.246;9.648;2022-07-22T03:20:57;16.63;;;14.83;;
15385;SDS011;7791;47.246;9.648;2022-07-22T03:23:23;19.00;;;14.33;;
15385;SDS011;7791;47.246;9.648;2022-07-22T03:25:49;18.03;;;15.10;;
15385;SDS011;7791;47.246;9.648;2022-07-22T03:28:16;17.73;;;14.77;;
15385;SDS011;7791;47.246;9.648;2022-07-22T03:30:42;19.50;;;15.00;;
15385;SDS011;7791;47.246;9.648;2022-07-22T03:33:08;18.23;;;14.87;;
15385;SDS011;7791;47.246;9.648;2022-07-22T03:35:34;18.90;;;15.47;;
15385;SDS011;7791;47.246;9.648;2022-07-22T03:38:01;18.47;;;15.10;;
15385;SDS011;7791;47.246;9.648;2022-07-22T03:40:26;17.00;;;14.87;;
15385;SDS011;7791;47.246;9.648;2022-07-22T03:42:52;19.63;;;15.83;;
15385;SDS011;7791;47.246;9.648;2022-07-22T03:45:18;21.67;;;16.47;;
15385;SDS011;7791;47.246;9.648;2022-07-22T03:47:44;21.80;;;17.73;;
15385;SDS011;7791;47.246;9.648;2022-07-22T03:50:10;22.33;;;16.50;;
15385;SDS011;7791;47.246;9.648;2022-07-22T03:52:35;20.80;;;16.17;;
15385;SDS011;7791;47.246;9.648;2022-07-22T03:55:03;22.87;;;16.50;;
15385;SDS011;7791;47.246;9.648;2022-07-22T03:57:43;20.93;;;16.43;;
15385;SDS011;7791;47.246;9.648;2022-07-22T04:00:09;21.20;;;16.87;;
15385;SDS011;7791;47.246;9.648;2022-07-22T04:02:35;23.33;;;17.70;;
15385;SDS011;7791;47.246;9.648;2022-07-22T04:05:01;24.70;;;17.80;;
15385;SDS011;7791;47.246;9.648;2022-07-22T04:07:27;21.03;;;17.63;;
15385;SDS011;7791;47.246;9.648;2022-07-22T04:09:53;22.93;;;17.30;;
15385;SDS011;7791;47.246;9.648;2022-07-22T04:12:21;20.80;;;15.97;;
15385;SDS011;7791;47.246;9.648;2022-07-22T04:14:47;20.87;;;16.10;;
15385;SDS011;7791;47.246;9.648;2022-07-22T04:17:13;18.03;;;15.70;;
15385;SDS011;7791;47.246;9.648;2022-07-22T04:19:38;23.17;;;16.63;;
15385;SDS011;7791;47.246;9.648;2022-07-22T04:22:04;19.47;;;16.07;;
15385;SDS011;7791;47.246;9.648;2022-07-22T04:24:30;20.37;;;16.30;;
15385;SDS011;7791;47.246;9.648;2022-07-22T04:26:56;21.10;;;15.93;;
15385;SDS011;7791;47.246;9.648;2022-07-22T04:29:23;20.27;;;15.73;;
15385;SDS011;7791;47.246;9.648;2022-07-22T04:31:48;22.77;;;16.80;;
15385;SDS011;7791;47.246;9.648;2022-07-22T04:34:14;25.20;;;17.20;;
15385;SDS011;7791;47.246;9.648;2022-07-22T04:36:40;24.37;;;17.67;;
15385;SDS011;7791;47.246;9.648;2022-07-22T04:39:06;20.43;;;16.60;;
15385;SDS011;7791;47.246;9.648;2022-07-22T04:41:31;17.60;;;15.60;;
15385;SDS011;7791;47.246;9.648;2022-07-22T04:44:06;20.87;;;16.23;;
15385;SDS011;7791;47.246;9.648;2022-07-22T04:46:33;20.23;;;16.13;;
15385;SDS011;7791;47.246;9.648;2022-07-22T04:48:59;19.20;;;16.47;;
15385;SDS011;7791;47.246;9.648;2022-07-22T04:51:24;20.30;;;16.70;;
15385;SDS011;7791;47.246;9.648;2022-07-22T04:53:50;22.23;;;16.50;;
15385;SDS011;7791;47.246;9.648;2022-07-22T04:56:16;20.33;;;17.13;;
15385;SDS011;7791;47.246;9.648;2022-07-22T04:58:42;21.33;;;17.03;;
15385;SDS011;7791;47.246;9.648;2022-07-22T05:01:08;19.33;;;16.20;;
15385;SDS011;7791;47.246;9.648;2022-07-22T05:03:35;21.30;;;17.33;;
15385;SDS011;7791;47.246;9.648;2022-07-22T05:06:03;20.17;;;17.30;;
15385;SDS011;7791;47.246;9.648;2022-07-22T05:08:28;23.73;;;16.37;;
15385;SDS011;7791;47.246;9.648;2022-07-22T05:10:54;20.53;;;16.13;;
15385;SDS011;7791;47.246;9.648;2022-07-22T05:13:23;19.43;;;16.27;;
15385;SDS011;7791;47.246;9.648;2022-07-22T05:15:49;21.27;;;15.60;;
15385;SDS011;7791;47.246;9.648;2022-07-22T05:18:15;25.17;;;16.57;;
15385;SDS011;7791;47.246;9.648;2022-07-22T05:20:43;20.10;;;16.53;;
15385;SDS011;7791;47.246;9.648;2022-07-22T05:23:09;18.27;;;14.50;;
15385;SDS011;7791;47.246;9.648;2022-07-22T05:25:35;17.70;;;14.70;;
15385;SDS011;7791;47.246;9.648;2022-07-22T05:28:02;17.00;;;13.43;;
15385;SDS011;7791;47.246;9.648;2022-07-22T05:30:28;15.50;;;12.27;;
15385;SDS011;7791;47.246;9.648;2022-07-22T05:32:54;18.10;;;12.57;;
15385;SDS011;7791;47.246;9.648;2022-07-22T05:35:20;14.17;;;12.13;;
15385;SDS011;7791;47.246;9.648;2022-07-22T05:37:47;13.52;;;12.10;;
15385;SDS011;7791;47.246;9.648;2022-07-22T05:40:13;14.32;;;12.60;;
15385;SDS011;7791;47.246;9.648;2022-07-22T05:42:39;19.45;;;12.98;;
15385;SDS011;7791;47.246;9.648;2022-07-22T05:45:05;14.65;;;12.82;;
15385;SDS011;7791;47.246;9.648;2022-07-22T05:47:31;14.75;;;11.32;;
15385;SDS011;7791;47.246;9.648;2022-07-22T05:49:57;12.73;;;10.48;;
15385;SDS011;7791;47.246;9.648;2022-07-22T05:52:23;11.50;;;10.15;;
15385;SDS011;7791;47.246;9.648;2022-07-22T05:54:50;12.82;;;10.75;;
15385;SDS011;7791;47.246;9.648;2022-07-22T05:57:16;11.77;;;10.55;;
15385;SDS011;7791;47.246;9.648;2022-07-22T05:59:51;13.18;;;10.68;;
15385;SDS011;7791;47.246;9.648;2022-07-22T06:02:16;12.93;;;11.30;;
15385;SDS011;7791;47.246;9.648;2022-07-22T06:04:42;13.10;;;11.43;;
15385;SDS011;7791;47.246;9.648;2022-07-22T06:07:08;12.18;;;10.80;;
15385;SDS011;7791;47.246;9.648;2022-07-22T06:09:34;12.90;;;10.23;;
15385;SDS011;7791;47.246;9.648;2022-07-22T06:12:01;11.43;;;10.23;;
15385;SDS011;7791;47.246;9.648;2022-07-22T06:14:27;11.15;;;10.10;;
15385;SDS011;7791;47.246;9.648;2022-07-22T06:16:53;11.85;;;9.90;;
15385;SDS011;7791;47.246;9.648;2022-07-22T06:19:19;11.32;;;9.98;;
15385;SDS011;7791;47.246;9.648;2022-07-22T06:21:45;10.57;;;9.45;;
15385;SDS011;7791;47.246;9.648;2022-07-22T06:24:11;10.43;;;9.32;;
15385;SDS011;7791;47.246;9.648;2022-07-22T06:26:37;9.73;;;8.75;;
15385;SDS011;7791;47.246;9.648;2022-07-22T06:29:09;10.43;;;9.43;;
15385;SDS011;7791;47.246;9.648;2022-07-22T06:31:35;11.25;;;9.65;;
15385;SDS011;7791;47.246;9.648;2022-07-22T06:34:00;11.27;;;10.15;;
15385;SDS011;7791;47.246;9.648;2022-07-22T06:36:26;11.15;;;10.00;;
15385;SDS011;7791;47.246;9.648;2022-07-22T06:38:52;10.98;;;9.88;;
15385;SDS011;7791;47.246;9.648;2022-07-22T06:41:18;10.82;;;9.70;;
15385;SDS011;7791;47.246;9.648;2022-07-22T06:43:44;11.20;;;10.10;;
15385;SDS011;7791;47.246;9.648;2022-07-22T06:46:11;12.32;;;10.38;;
15385;SDS011;7791;47.246;9.648;2022-07-22T06:48:37;15.45;;;11.35;;
15385;SDS011;7791;47.246;9.648;2022-07-22T06:51:03;10.90;;;9.90;;
15385;SDS011;7791;47.246;9.648;2022-07-22T06:53:28;14.20;;;10.38;;
15385;SDS011;7791;47.246;9.648;2022-07-22T06:55:54;13.20;;;10.15;;
15385;SDS011;7791;47.246;9.648;2022-07-22T06:58:20;10.80;;;9.70;;
15385;SDS011;7791;47.246;9.648;2022-07-22T07:01:01;10.43;;;9.35;;
15385;SDS011;7791;47.246;9.648;2022-07-22T07:03:28;10.93;;;9.75;;
15385;SDS011;7791;47.246;9.648;2022-07-22T07:05:54;12.88;;;10.52;;
15385;SDS011;7791;47.246;9.648;2022-07-22T07:08:20;10.48;;;9.32;;
15385;SDS011;7791;47.246;9.648;2022-07-22T07:10:46;12.27;;;9.27;;
15385;SDS011;7791;47.246;9.648;2022-07-22T07:13:12;10.27;;;9.20;;
15385;SDS011;7791;47.246;9.648;2022-07-22T07:15:38;10.80;;;9.75;;
15385;SDS011;7791;47.246;9.648;2022-07-22T07:18:04;10.27;;;9.18;;
15385;SDS011;7791;47.246;9.648;2022-07-22T07:20:31;10.70;;;9.38;;
15385;SDS011;7791;47.246;9.648;2022-07-22T07:22:59;12.77;;;9.85;;
15385;SDS011;7791;47.246;9.648;2022-07-22T07:25:25;10.10;;;9.10;;
15385;SDS011;7791;47.246;9.648;2022-07-22T07:27:51;12.80;;;9.30;;
15385;SDS011;7791;47.246;9.648;2022-07-22T07:30:18;15.10;;;9.63;;
15385;SDS011;7791;47.246;9.648;2022-07-22T07:32:43;11.75;;;9.35;;
15385;SDS011;7791;47.246;9.648;2022-07-22T07:35:09;10.35;;;9.18;;
15385;SDS011;7791;47.246;9.648;2022-07-22T07:37:37;11.40;;;9.43;;
15385;SDS011;7791;47.246;9.648;2022-07-22T07:40:03;13.93;;;8.98;;
15385;SDS011;7791;47.246;9.648;2022-07-22T07:42:30;13.45;;;9.90;;
15385;SDS011;7791;47.246;9.648;2022-07-22T07:44:55;11.93;;;9.75;;
15385;SDS011;7791;47.246;9.648;2022-07-22T07:47:21;11.45;;;9.73;;
15385;SDS011;7791;47.246;9.648;2022-07-22T07:49:47;14.45;;;9.75;;
15385;SDS011;7791;47.246;9.648;2022-07-22T07:52:14;18.90;;;11.07;;
15385;SDS011;7791;47.246;9.648;2022-07-22T07:54:42;23.00;;;11.40;;
15385;SDS011;7791;47.246;9.648;2022-07-22T07:57:08;19.55;;;10.43;;
15385;SDS011;7791;47.246;9.648;2022-07-22T07:59:34;21.83;;;11.32;;
15385;SDS011;7791;47.246;9.648;2022-07-22T08:02:00;20.17;;;10.77;;
15385;SDS011;7791;47.246;9.648;2022-07-22T08:04:27;19.40;;;11.00;;
15385;SDS011;7791;47.246;9.648;2022-07-22T08:06:53;22.48;;;11.13;;
15385;SDS011;7791;47.246;9.648;2022-07-22T08:09:19;24.92;;;11.23;;
15385;SDS011;7791;47.246;9.648;2022-07-22T08:11:47;15.50;;;11.32;;
15385;SDS011;7791;47.246;9.648;2022-07-22T08:14:12;13.45;;;11.70;;
15385;SDS011;7791;47.246;9.648;2022-07-22T08:16:43;14.30;;;11.23;;
15385;SDS011;7791;47.246;9.648;2022-07-22T08:19:09;17.23;;;11.68;;
15385;SDS011;7791;47.246;9.648;2022-07-22T08:21:35;11.15;;;10.02;;
15385;SDS011;7791;47.246;9.648;2022-07-22T08:24:01;12.35;;;10.05;;
15385;SDS011;7791;47.246;9.648;2022-07-22T08:26:26;13.50;;;11.45;;
15385;SDS011;7791;47.246;9.648;2022-07-22T08:28:53;15.05;;;11.00;;
15385;SDS011;7791;47.246;9.648;2022-07-22T08:34:19;13.60;;;12.20;;
15385;SDS011;7791;47.246;9.648;2022-07-22T08:36:45;16.50;;;12.00;;
15385;SDS011;7791;47.246;9.648;2022-07-22T08:39:11;20.77;;;11.77;;
15385;SDS011;7791;47.246;9.648;2022-07-22T08:41:37;16.40;;;11.65;;
15385;SDS011;7791;47.246;9.648;2022-07-22T08:44:05;16.30;;;12.00;;
15385;SDS011;7791;47.246;9.648;2022-07-22T08:46:43;16.10;;;12.45;;
15385;SDS011;7791;47.246;9.648;2022-07-22T08:49:12;15.40;;;12.85;;
15385;SDS011;7791;47.246;9.648;2022-07-22T08:51:38;17.77;;;11.35;;
15385;SDS011;7791;47.246;9.648;2022-07-22T08:54:04;14.70;;;11.35;;
15385;SDS011;7791;47.246;9.648;2022-07-22T08:56:30;17.30;;;11.73;;
15385;SDS011;7791;47.246;9.648;2022-07-22T08:58:56;13.60;;;11.63;;
15385;SDS011;7791;47.246;9.648;2022-07-22T09:01:27;15.75;;;13.18;;
15385;SDS011;7791;47.246;9.648;2022-07-22T09:03:53;13.85;;;11.70;;
15385;SDS011;7791;47.246;9.648;2022-07-22T09:06:22;16.45;;;10.32;;
15385;SDS011;7791;47.246;9.648;2022-07-22T09:08:52;15.10;;;12.38;;
15385;SDS011;7791;47.246;9.648;2022-07-22T09:11:19;13.20;;;11.80;;
15385;SDS011;7791;47.246;9.648;2022-07-22T09:13:46;15.00;;;13.20;;
15385;SDS011;7791;47.246;9.648;2022-07-22T09:16:13;14.20;;;11.85;;
15385;SDS011;7791;47.246;9.648;2022-07-22T09:18:56;17.10;;;12.95;;
15385;SDS011;7791;47.246;9.648;2022-07-22T09:21:22;13.63;;;12.20;;
15385;SDS011;7791;47.246;9.648;2022-07-22T09:23:48;14.45;;;11.57;;
15385;SDS011;7791;47.246;9.648;2022-07-22T09:26:28;16.90;;;11.45;;
15385;SDS011;7791;47.246;9.648;2022-07-22T09:28:56;16.25;;;12.65;;
15385;SDS011;7791;47.246;9.648;2022-07-22T09:31:23;15.38;;;12.98;;
15385;SDS011;7791;47.246;9.648;2022-07-22T09:36:54;13.57;;;12.10;;
15385;SDS011;7791;47.246;9.648;2022-07-22T09:39:24;20.15;;;12.30;;
15385;SDS011;7791;47.246;9.648;2022-07-22T09:41:56;12.48;;;11.18;;
15385;SDS011;7791;47.246;9.648;2022-07-22T09:44:22;16.42;;;12.38;;
15385;SDS011;7791;47.246;9.648;2022-07-22T09:47:03;13.95;;;12.25;;
15385;SDS011;7791;47.246;9.648;2022-07-22T09:49:30;15.05;;;12.48;;
15385;SDS011;7791;47.246;9.648;2022-07-22T09:51:58;14.73;;;12.15;;
15385;SDS011;7791;47.246;9.648;2022-07-22T09:54:25;13.50;;;11.98;;
15385;SDS011;7791;47.246;9.648;2022-07-22T09:56:54;15.32;;;12.50;;
15385;SDS011;7791;47.246;9.648;2022-07-22T09:59:20;16.63;;;12.75;;
15385;SDS011;7791;47.246;9.648;2022-07-22T10:01:46;15.07;;;12.80;;
15385;SDS011;7791;47.246;9.648;2022-07-22T10:04:15;13.85;;;12.45;;
15385;SDS011;7791;47.246;9.648;2022-07-22T10:06:44;14.65;;;12.82;;
15385;SDS011;7791;47.246;9.648;2022-07-22T10:09:13;14.10;;;12.60;;
15385;SDS011;7791;47.246;9.648;2022-07-22T10:11:39;17.60;;;12.60;;
15385;SDS011;7791;47.246;9.648;2022-07-22T10:14:06;15.27;;;13.20;;
15385;SDS011;7791;47.246;9.648;2022-07-22T10:16:32;12.88;;;11.50;;
15385;SDS011;7791;47.246;9.648;2022-07-22T10:19:00;15.32;;;11.90;;
15385;SDS011;7791;47.246;9.648;2022-07-22T10:21:30;12.82;;;11.50;;
15385;SDS011;7791;47.246;9.648;2022-07-22T10:24:06;14.60;;;10.77;;
15385;SDS011;7791;47.246;9.648;2022-07-22T10:26:47;12.30;;;11.13;;
15385;SDS011;7791;47.246;9.648;2022-07-22T10:29:28;12.48;;;10.98;;
15385;SDS011;7791;47.246;9.648;2022-07-22T10:37:48;15.93;;;10.35;;
15385;SDS011;7791;47.246;9.648;2022-07-22T10:40:15;11.77;;;10.32;;
15385;SDS011;7791;47.246;9.648;2022-07-22T10:45:34;12.90;;;10.38;;
15385;SDS011;7791;47.246;9.648;2022-07-22T10:48:17;11.23;;;10.13;;
15385;SDS011;7791;47.246;9.648;2022-07-22T10:50:48;12.18;;;9.93;;
15385;SDS011;7791;47.246;9.648;2022-07-22T10:53:39;12.23;;;10.20;;
15385;SDS011;7791;47.246;9.648;2022-07-22T10:56:14;11.52;;;10.40;;
15385;SDS011;7791;47.246;9.648;2022-07-22T10:58:43;12.23;;;10.07;;
15385;SDS011;7791;47.246;9.648;2022-07-22T11:01:11;12.13;;;9.98;;
15385;SDS011;7791;47.246;9.648;2022-07-22T11:06:39;15.13;;;11.05;;
15385;SDS011;7791;47.246;9.648;2022-07-22T11:09:06;13.65;;;10.80;;
15385;SDS011;7791;47.246;9.648;2022-07-22T11:11:34;11.95;;;10.07;;
15385;SDS011;7791;47.246;9.648;2022-07-22T11:14:08;11.88;;;10.60;;
15385;SDS011;7791;47.246;9.648;2022-07-22T11:16:40;12.15;;;10.40;;
15385;SDS011;7791;47.246;9.648;2022-07-22T11:19:26;10.88;;;9.48;;
15385;SDS011;7791;47.246;9.648;2022-07-22T11:21:54;13.23;;;10.77;;
15385;SDS011;7791;47.246;9.648;2022-07-22T11:24:21;11.57;;;10.18;;
15385;SDS011;7791;47.246;9.648;2022-07-22T11:26:48;11.27;;;9.73;;
15385;SDS011;7791;47.246;9.648;2022-07-22T11:29:17;13.45;;;10.25;;
15385;SDS011;7791;47.246;9.648;2022-07-22T11:31:49;11.77;;;10.55;;
15385;SDS011;7791;47.246;9.648;2022-07-22T11:34:15;15.02;;;10.90;;
15385;SDS011;7791;47.246;9.648;2022-07-22T11:36:42;11.20;;;10.07;;
15385;SDS011;7791;47.246;9.648;2022-07-22T11:39:10;10.50;;;9.40;;
15385;SDS011;7791;47.246;9.648;2022-07-22T11:41:37;10.73;;;9.60;;
15385;SDS011;7791;47.246;9.648;2022-07-22T11:44:04;11.10;;;9.65;;
15385;SDS011;7791;47.246;9.648;2022-07-22T11:46:35;10.57;;;9.55;;
15385;SDS011;7791;47.246;9.648;2022-07-22T11:49:02;11.75;;;9.57;;
15385;SDS011;7791;47.246;9.648;2022-07-22T11:51:29;9.25;;;8.35;;
15385;SDS011;7791;47.246;9.648;2022-07-22T11:53:55;12.10;;;9.15;;
15385;SDS011;7791;47.246;9.648;2022-07-22T11:56:21;10.60;;;9.50;;
15385;SDS011;7791;47.246;9.648;2022-07-22T11:58:48;11.10;;;9.93;;
15385;SDS011;7791;47.246;9.648;2022-07-22T12:01:15;11.32;;;9.88;;
15385;SDS011;7791;47.246;9.648;2022-07-22T12:03:45;12.80;;;9.88;;
15385;SDS011;7791;47.246;9.648;2022-07-22T12:06:13;12.50;;;9.45;;
15385;SDS011;7791;47.246;9.648;2022-07-22T12:08:41;11.07;;;9.80;;
15385;SDS011;7791;47.246;9.648;2022-07-22T12:11:09;10.68;;;9.57;;
15385;SDS011;7791;47.246;9.648;2022-07-22T12:13:35;12.40;;;10.52;;
15385;SDS011;7791;47.246;9.648;2022-07-22T12:16:15;10.50;;;9.40;;
15385;SDS011;7791;47.246;9.648;2022-07-22T12:18:51;12.50;;;10.18;;
15385;SDS011;7791;47.246;9.648;2022-07-22T12:21:18;10.57;;;9.48;;
15385;SDS011;7791;47.246;9.648;2022-07-22T12:23:49;12.10;;;9.40;;
15385;SDS011;7791;47.246;9.648;2022-07-22T12:26:15;13.02;;;10.00;;
15385;SDS011;7791;47.246;9.648;2022-07-22T12:28:41;12.30;;;9.82;;
15385;SDS011;7791;47.246;9.648;2022-07-22T12:31:07;11.43;;;9.57;;
15385;SDS011;7791;47.246;9.648;2022-07-22T12:33:33;10.43;;;9.32;;
15385;SDS011;7791;47.246;9.648;2022-07-22T12:36:01;10.73;;;9.73;;
15385;SDS011;7791;47.246;9.648;2022-07-22T12:38:29;10.20;;;9.23;;
15385;SDS011;7791;47.246;9.648;2022-07-22T12:40:56;12.30;;;9.90;;
15385;SDS011;7791;47.246;9.648;2022-07-22T12:43:24;10.57;;;9.50;;
15385;SDS011;7791;47.246;9.648;2022-07-22T12:45:51;10.55;;;9.55;;
15385;SDS011;7791;47.246;9.648;2022-07-22T12:48:17;10.15;;;9.15;;
15385;SDS011;7791;47.246;9.648;2022-07-22T12:50:53;10.82;;;9.77;;
15385;SDS011;7791;47.246;9.648;2022-07-22T12:53:22;11.02;;;9.15;;
15385;SDS011;7791;47.246;9.648;2022-07-22T12:55:49;13.18;;;10.45;;
15385;SDS011;7791;47.246;9.648;2022-07-22T12:58:17;10.40;;;9.23;;
15385;SDS011;7791;47.246;9.648;2022-07-22T13:00:45;11.13;;;9.30;;
15385;SDS011;7791;47.246;9.648;2022-07-22T13:03:12;10.43;;;9.43;;
15385;SDS011;7791;47.246;9.648;2022-07-22T13:05:37;11.20;;;9.23;;
15385;SDS011;7791;47.246;9.648;2022-07-22T13:08:04;10.10;;;9.05;;
15385;SDS011;7791;47.246;9.648;2022-07-22T13:10:31;9.88;;;8.65;;
15385;SDS011;7791;47.246;9.648;2022-07-22T13:12:58;12.05;;;8.90;;
15385;SDS011;7791;47.246;9.648;2022-07-22T13:15:24;13.30;;;9.18;;
15385;SDS011;7791;47.246;9.648;2022-07-22T13:17:50;10.43;;;9.35;;
15385;SDS011;7791;47.246;9.648;2022-07-22T13:20:28;11.38;;;9.10;;
15385;SDS011;7791;47.246;9.648;2022-07-22T13:22:54;11.48;;;8.88;;
15385;SDS011;7791;47.246;9.648;2022-07-22T13:25:20;13.65;;;9.60;;
15385;SDS011;7791;47.246;9.648;2022-07-22T13:27:48;10.15;;;9.07;;
15385;SDS011;7791;47.246;9.648;2022-07-22T13:30:13;10.27;;;8.82;;
15385;SDS011;7791;47.246;9.648;2022-07-22T13:32:39;10.35;;;9.20;;
15385;SDS011;7791;47.246;9.648;2022-07-22T13:35:05;11.18;;;9.02;;
15385;SDS011;7791;47.246;9.648;2022-07-22T13:37:32;9.82;;;8.63;;
15385;SDS011;7791;47.246;9.648;2022-07-22T13:39:57;8.95;;;7.88;;
15385;SDS011;7791;47.246;9.648;2022-07-22T13:42:24;10.45;;;7.70;;
15385;SDS011;7791;47.246;9.648;2022-07-22T13:44:51;9.10;;;8.07;;
15385;SDS011;7791;47.246;9.648;2022-07-22T13:47:17;9.65;;;8.60;;
15385;SDS011;7791;47.246;9.648;2022-07-22T13:49:43;9.80;;;7.85;;
15385;SDS011;7791;47.246;9.648;2022-07-22T13:52:21;8.68;;;7.45;;
15385;SDS011;7791;47.246;9.648;2022-07-22T13:54:47;10.98;;;8.63;;
15385;SDS011;7791;47.246;9.648;2022-07-22T13:57:13;9.27;;;7.82;;
15385;SDS011;7791;47.246;9.648;2022-07-22T13:59:39;9.65;;;7.90;;
15385;SDS011;7791;47.246;9.648;2022-07-22T14:02:06;8.77;;;7.88;;
15385;SDS011;7791;47.246;9.648;2022-07-22T14:04:33;8.93;;;8.02;;
15385;SDS011;7791;47.246;9.648;2022-07-22T14:07:00;9.23;;;7.57;;
15385;SDS011;7791;47.246;9.648;2022-07-22T14:09:33;8.57;;;7.60;;
15385;SDS011;7791;47.246;9.648;2022-07-22T14:11:59;9.40;;;7.72;;
15385;SDS011;7791;47.246;9.648;2022-07-22T14:14:29;8.80;;;7.95;;
15385;SDS011;7791;47.246;9.648;2022-07-22T14:16:56;10.85;;;7.70;;
15385;SDS011;7791;47.246;9.648;2022-07-22T14:19:32;9.70;;;7.75;;
15385;SDS011;7791;47.246;9.648;2022-07-22T14:24:52;9.45;;;7.90;;
15385;SDS011;7791;47.246;9.648;2022-07-22T14:27:21;10.20;;;7.70;;
15385;SDS011;7791;47.246;9.648;2022-07-22T14:29:47;10.20;;;7.97;;
15385;SDS011;7791;47.246;9.648;2022-07-22T14:32:15;9.90;;;8.07;;
15385;SDS011;7791;47.246;9.648;2022-07-22T14:34:42;9.40;;;7.85;;
15385;SDS011;7791;47.246;9.648;2022-07-22T14:37:08;10.73;;;7.70;;
15385;SDS011;7791;47.246;9.648;2022-07-22T14:39:34;9.25;;;8.35;;
15385;SDS011;7791;47.246;9.648;2022-07-22T14:42:00;12.50;;;8.10;;
15385;SDS011;7791;47.246;9.648;2022-07-22T14:44:25;9.48;;;7.72;;
15385;SDS011;7791;47.246;9.648;2022-07-22T14:46:51;10.23;;;7.68;;
15385;SDS011;7791;47.246;9.648;2022-07-22T14:49:17;9.10;;;8.20;;
15385;SDS011;7791;47.246;9.648;2022-07-22T14:51:44;8.43;;;7.60;;
15385;SDS011;7791;47.246;9.648;2022-07-22T14:54:11;11.88;;;7.70;;
15385;SDS011;7791;47.246;9.648;2022-07-22T14:56:36;8.55;;;7.32;;
15385;SDS011;7791;47.246;9.648;2022-07-22T14:59:02;8.15;;;7.18;;
15385;SDS011;7791;47.246;9.648;2022-07-22T15:01:28;7.50;;;6.68;;